createdAt,value
2022-07-26T00:00:24.960Z,1.05
2022-07-26T00:02:27.058Z,0.90
2022-07-26T00:04:28.793Z,1.00
2022-07-26T00:06:30.719Z,0.95
2022-07-26T00:08:32.430Z,0.90
2022-07-26T00:10:34.289Z,1.10
2022-07-26T00:12:36.026Z,0.88
2022-07-26T00:14:37.718Z,0.90
2022-07-26T00:16:41.012Z,1.23
2022-07-26T00:18:42.886Z,0.98
2022-07-26T00:20:44.667Z,0.85
2022-07-26T00:22:46.306Z,0.90
2022-07-26T00:24:47.955Z,1.55
2022-07-26T00:26:49.663Z,1.15
2022-07-26T00:28:51.299Z,0.90
2022-07-26T00:30:53.013Z,1.00
2022-07-26T00:32:55.016Z,0.88
2022-07-26T00:34:56.636Z,1.10
2022-07-26T00:36:58.389Z,1.05
2022-07-26T00:39:00.018Z,1.05
2022-07-26T00:41:01.828Z,1.08
2022-07-26T00:43:03.580Z,1.10
2022-07-26T00:45:07.255Z,1.20
2022-07-26T00:47:09.086Z,1.02
2022-07-26T00:49:12.109Z,1.20
2022-07-26T00:51:14.915Z,1.05
2022-07-26T00:53:20.146Z,1.00
2022-07-26T00:55:21.954Z,0.90
2022-07-26T00:57:24.320Z,1.33
2022-07-26T00:59:26.051Z,1.13
2022-07-26T01:01:27.825Z,1.13
2022-07-26T01:03:36.631Z,1.42
2022-07-26T01:05:41.598Z,1.20
2022-07-26T01:07:43.823Z,1.25
2022-07-26T01:09:45.495Z,1.50
2022-07-26T01:11:47.174Z,1.40
2022-07-26T01:13:49.924Z,1.00
2022-07-26T01:15:51.780Z,0.90
2022-07-26T01:17:53.633Z,1.00
2022-07-26T01:19:55.526Z,1.02
2022-07-26T01:21:57.161Z,1.17
2022-07-26T01:23:59.196Z,1.13
2022-07-26T01:26:00.877Z,1.60
2022-07-26T01:28:02.926Z,1.15
2022-07-26T01:30:06.200Z,1.08
2022-07-26T01:32:08.911Z,0.90
2022-07-26T01:34:10.769Z,1.33
2022-07-26T01:36:12.885Z,1.23
2022-07-26T01:38:14.652Z,1.30
2022-07-26T01:40:16.322Z,1.30
2022-07-26T01:42:17.922Z,1.20
2022-07-26T01:44:19.623Z,0.98
2022-07-26T01:46:21.383Z,0.98
2022-07-26T01:48:23.152Z,1.17
2022-07-26T01:50:24.880Z,1.30
2022-07-26T01:52:27.465Z,1.20
2022-07-26T01:54:29.152Z,1.20
2022-07-26T01:56:30.779Z,1.10
2022-07-26T01:58:32.412Z,1.30
2022-07-26T02:00:34.422Z,2.15
2022-07-26T02:02:36.258Z,1.33
2022-07-26T02:04:56.548Z,1.45
2022-07-26T02:06:58.202Z,1.00
2022-07-26T02:09:00.362Z,1.30
2022-07-26T02:11:03.730Z,1.20
2022-07-26T02:13:06.864Z,1.15
2022-07-26T02:15:10.616Z,1.13
2022-07-26T02:17:12.516Z,1.00
2022-07-26T02:19:14.137Z,0.98
2022-07-26T02:21:15.780Z,1.30
2022-07-26T02:23:17.477Z,1.10
2022-07-26T02:25:19.332Z,1.30
2022-07-26T02:27:21.078Z,1.40
2022-07-26T02:29:22.797Z,1.30
2022-07-26T02:31:24.504Z,1.25
2022-07-26T02:33:34.091Z,1.20
2022-07-26T02:35:36.306Z,1.30
2022-07-26T02:37:43.561Z,1.10
2022-07-26T02:39:45.713Z,1.48
2022-07-26T02:41:47.542Z,1.27
2022-07-26T02:43:49.275Z,1.27
2022-07-26T02:46:01.138Z,1.10
2022-07-26T02:48:04.293Z,1.13
2022-07-26T02:50:07.656Z,1.17
2022-07-26T02:52:09.271Z,1.52
2022-07-26T02:54:11.448Z,1.20
2022-07-26T02:56:13.456Z,1.30
2022-07-26T02:58:15.230Z,1.08
2022-07-26T03:00:19.767Z,1.08
2022-07-26T03:02:21.488Z,1.17
2022-07-26T03:04:24.532Z,1.10
2022-07-26T03:06:26.278Z,1.23
2022-07-26T03:08:28.118Z,1.00
2022-07-26T03:10:29.758Z,1.08
2022-07-26T03:12:31.914Z,1.33
2022-07-26T03:14:33.618Z,1.15
2022-07-26T03:16:35.461Z,1.20
2022-07-26T03:18:37.389Z,1.10
2022-07-26T03:20:39.094Z,1.23
2022-07-26T03:22:40.833Z,1.90
2022-07-26T03:24:42.436Z,1.00
2022-07-26T03:26:44.327Z,1.20
2022-07-26T03:28:46.090Z,1.83
2022-07-26T03:30:47.816Z,1.30
2022-07-26T03:32:49.817Z,1.33
2022-07-26T03:34:51.636Z,1.20
2022-07-26T03:36:53.310Z,1.30
2022-07-26T03:38:55.037Z,1.20
2022-07-26T03:40:56.931Z,1.00
2022-07-26T03:42:58.588Z,1.00
2022-07-26T03:45:00.204Z,1.13
2022-07-26T03:47:02.341Z,0.90
2022-07-26T03:49:04.399Z,1.00
2022-07-26T03:51:06.213Z,0.90
2022-07-26T03:53:07.846Z,1.02
2022-07-26T03:55:28.807Z,0.90
2022-07-26T03:57:30.465Z,1.02
2022-07-26T03:59:32.075Z,1.10
2022-07-26T04:01:41.769Z,0.90
2022-07-26T04:03:47.392Z,0.90
2022-07-26T04:05:49.643Z,1.27
2022-07-26T04:07:54.355Z,1.48
2022-07-26T04:09:57.576Z,0.95
2022-07-26T04:11:59.257Z,1.00
2022-07-26T04:14:01.365Z,1.00
2022-07-26T04:16:04.035Z,1.00
2022-07-26T04:18:05.679Z,1.00
2022-07-26T04:20:08.954Z,1.20
2022-07-26T04:22:10.639Z,0.90
2022-07-26T04:24:12.416Z,0.90
2022-07-26T04:26:16.890Z,0.90
2022-07-26T04:28:18.930Z,0.80
2022-07-26T04:30:20.688Z,0.90
2022-07-26T04:32:22.569Z,1.10
2022-07-26T04:34:24.191Z,0.90
2022-07-26T04:36:25.909Z,1.00
2022-07-26T04:38:27.745Z,1.13
2022-07-26T04:40:33.510Z,0.90
2022-07-26T04:42:35.609Z,0.85
2022-07-26T04:44:37.675Z,0.90
2022-07-26T04:46:39.398Z,0.70
2022-07-26T04:48:46.769Z,0.93
2022-07-26T04:50:48.595Z,1.00
2022-07-26T04:52:51.232Z,0.98
2022-07-26T04:54:52.884Z,0.90
2022-07-26T04:56:54.682Z,0.70
2022-07-26T04:58:56.470Z,1.05
2022-07-26T05:01:14.980Z,0.80
2022-07-26T05:03:16.798Z,1.10
2022-07-26T05:05:18.517Z,1.20
2022-07-26T05:07:20.423Z,0.70
2022-07-26T05:09:22.255Z,1.00
2022-07-26T05:11:24.233Z,0.75
2022-07-26T05:13:29.751Z,1.75
2022-07-26T05:15:35.380Z,0.88
2022-07-26T05:17:42.027Z,0.73
2022-07-26T05:19:48.858Z,0.77
2022-07-26T05:21:51.979Z,0.90
2022-07-26T05:23:55.327Z,0.80
2022-07-26T05:25:57.051Z,0.88
2022-07-26T05:28:02.223Z,1.08
2022-07-26T05:30:04.218Z,0.80
2022-07-26T05:32:06.468Z,1.00
2022-07-26T05:34:08.390Z,1.45
2022-07-26T05:36:10.546Z,0.80
2022-07-26T05:38:12.342Z,0.88
2022-07-26T05:40:14.128Z,0.90
2022-07-26T05:42:15.813Z,0.47
2022-07-26T05:44:18.049Z,0.88
2022-07-26T05:46:20.553Z,0.77
2022-07-26T05:48:22.256Z,0.93
2022-07-26T05:50:23.864Z,0.80
2022-07-26T05:52:25.554Z,1.17
2022-07-26T05:54:28.657Z,0.70
2022-07-26T05:56:30.437Z,0.85
2022-07-26T05:58:32.108Z,1.00
2022-07-26T06:00:35.116Z,0.80
2022-07-26T06:02:36.953Z,0.70
2022-07-26T06:04:40.242Z,0.98
2022-07-26T06:06:42.071Z,0.60
2022-07-26T06:08:43.738Z,0.93
2022-07-26T06:10:46.271Z,0.68
2022-07-26T06:12:48.083Z,0.90
2022-07-26T06:14:49.731Z,0.90
2022-07-26T06:16:51.585Z,0.90
2022-07-26T06:18:53.235Z,0.70
2022-07-26T06:20:55.891Z,0.80
2022-07-26T06:23:04.102Z,0.75
2022-07-26T06:25:06.542Z,0.70
2022-07-26T06:27:08.606Z,0.70
2022-07-26T06:29:10.290Z,0.85
2022-07-26T06:31:12.044Z,0.80
2022-07-26T06:33:14.004Z,0.80
2022-07-26T06:35:16.138Z,0.77
2022-07-26T06:37:17.896Z,0.80
2022-07-26T06:39:19.898Z,0.70
2022-07-26T06:41:21.610Z,0.60
2022-07-26T06:43:24.846Z,0.80
2022-07-26T06:45:29.212Z,0.93
2022-07-26T06:47:31.545Z,1.00
2022-07-26T06:49:33.350Z,1.25
2022-07-26T06:51:35.201Z,0.75
2022-07-26T06:53:36.923Z,0.95
2022-07-26T06:55:38.597Z,0.90
2022-07-26T06:57:45.049Z,0.73
2022-07-26T06:59:51.962Z,0.95
2022-07-26T07:01:59.044Z,1.00
2022-07-26T07:04:02.074Z,0.80
2022-07-26T07:06:03.912Z,0.80
2022-07-26T07:08:07.246Z,1.00
2022-07-26T07:10:09.811Z,0.70
2022-07-26T07:12:11.977Z,0.77
2022-07-26T07:14:13.648Z,0.70
2022-07-26T07:16:15.918Z,0.70
2022-07-26T07:18:17.926Z,1.15
2022-07-26T07:20:19.817Z,0.70
2022-07-26T07:22:24.276Z,0.75
2022-07-26T07:24:26.073Z,0.82
2022-07-26T07:26:31.377Z,0.60
2022-07-26T07:28:34.209Z,1.10
2022-07-26T07:30:36.248Z,0.70
2022-07-26T07:32:40.135Z,0.90
2022-07-26T07:34:42.032Z,0.57
2022-07-26T07:36:45.383Z,0.77
2022-07-26T07:38:49.306Z,1.00
2022-07-26T07:40:51.607Z,0.63
2022-07-26T07:42:53.438Z,0.82
2022-07-26T07:44:59.443Z,1.00
2022-07-26T07:47:01.386Z,1.02
2022-07-26T07:49:04.554Z,0.80
2022-07-26T07:51:07.459Z,1.00
2022-07-26T07:53:09.855Z,1.20
2022-07-26T07:55:40.234Z,0.82
2022-07-26T07:57:37.066Z,0.80
2022-07-26T07:59:39.433Z,0.70
2022-07-26T08:01:41.598Z,0.80
2022-07-26T08:03:43.327Z,0.70
2022-07-26T08:05:54.207Z,0.68
2022-07-26T08:07:55.938Z,0.80
2022-07-26T08:09:57.903Z,0.70
2022-07-26T08:12:00.201Z,0.80
2022-07-26T08:14:02.684Z,0.70
2022-07-26T08:16:06.222Z,1.15
2022-07-26T08:18:11.477Z,0.90
2022-07-26T08:20:16.207Z,0.65
2022-07-26T08:22:18.130Z,0.77
2022-07-26T08:24:20.423Z,0.77
2022-07-26T08:26:25.207Z,0.60
2022-07-26T08:28:46.905Z,0.55
2022-07-26T08:30:49.385Z,0.75
2022-07-26T08:32:51.291Z,0.70
2022-07-26T08:34:53.091Z,0.68
2022-07-26T08:37:15.824Z,0.60
2022-07-26T08:39:18.633Z,0.80
2022-07-26T08:41:20.509Z,0.57
2022-07-26T08:43:22.642Z,0.70
2022-07-26T08:45:28.966Z,0.60
2022-07-26T08:47:37.606Z,0.70
2022-07-26T08:49:42.626Z,0.70
2022-07-26T08:51:44.834Z,0.60
2022-07-26T08:53:46.667Z,0.70
2022-07-26T08:56:06.360Z,0.70
2022-07-26T08:58:08.826Z,1.02
2022-07-26T09:00:37.772Z,0.93
2022-07-26T09:02:41.740Z,1.40
2022-07-26T09:04:46.398Z,0.70
2022-07-26T09:07:01.205Z,0.70
2022-07-26T09:09:12.611Z,1.00
2022-07-26T09:11:23.482Z,0.65
2022-07-26T09:13:52.076Z,0.73
2022-07-26T09:16:12.936Z,0.70
2022-07-26T09:18:29.200Z,0.60
2022-07-26T09:20:32.325Z,0.70
2022-07-26T09:22:34.153Z,0.93
2022-07-26T09:24:38.761Z,1.38
2022-07-26T09:26:40.604Z,0.65
2022-07-26T09:28:44.984Z,0.70
2022-07-26T09:30:53.417Z,0.50
2022-07-26T09:33:06.594Z,0.70
2022-07-26T09:35:45.983Z,0.85
2022-07-26T09:37:43.869Z,0.80
2022-07-26T09:39:56.509Z,0.80
2022-07-26T09:42:25.141Z,0.75
2022-07-26T09:44:22.441Z,0.85
2022-07-26T09:46:26.327Z,0.60
2022-07-26T09:48:36.579Z,1.13
2022-07-26T09:50:47.569Z,0.60
2022-07-26T09:53:08.671Z,0.50
2022-07-26T09:55:10.921Z,0.60
2022-07-26T09:57:25.961Z,0.75
2022-07-26T09:59:29.059Z,0.90
2022-07-26T10:01:30.815Z,1.05
2022-07-26T10:03:34.185Z,0.80
2022-07-26T10:05:36.617Z,0.63
2022-07-26T10:07:38.544Z,0.90
2022-07-26T10:09:50.161Z,0.63
2022-07-26T10:12:03.315Z,0.65
2022-07-26T10:14:33.090Z,0.95
2022-07-26T10:16:34.941Z,0.80
2022-07-26T10:18:40.726Z,0.88
2022-07-26T10:20:51.176Z,0.98
2022-07-26T10:22:52.923Z,0.90
2022-07-26T10:24:58.146Z,0.85
2022-07-26T10:27:00.298Z,0.82
2022-07-26T10:29:17.262Z,0.77
2022-07-26T10:31:29.545Z,0.80
2022-07-26T10:33:42.666Z,0.60
2022-07-26T10:35:44.386Z,1.25
2022-07-26T10:38:07.904Z,0.57
2022-07-26T10:40:18.940Z,0.73
2022-07-26T10:42:20.599Z,0.65
2022-07-26T10:44:30.271Z,0.77
2022-07-26T10:46:32.028Z,0.70
2022-07-26T10:48:33.712Z,0.50
2022-07-26T10:50:35.792Z,0.70
2022-07-26T10:52:37.523Z,0.70
2022-07-26T10:54:57.290Z,0.60
2022-07-26T10:56:58.965Z,0.68
2022-07-26T10:59:01.377Z,0.63
2022-07-26T11:01:05.892Z,0.55
2022-07-26T11:03:07.729Z,0.70
2022-07-26T11:05:15.656Z,0.70
2022-07-26T11:07:17.457Z,0.60
2022-07-26T11:09:20.910Z,0.60
2022-07-26T11:11:31.139Z,0.75
2022-07-26T11:13:33.765Z,0.60
2022-07-26T11:15:37.531Z,0.57
2022-07-26T11:17:39.375Z,0.60
2022-07-26T11:19:44.078Z,1.35
2022-07-26T11:21:47.173Z,1.20
2022-07-26T11:23:52.097Z,0.68
2022-07-26T11:26:02.605Z,0.60
2022-07-26T11:28:07.413Z,0.70
2022-07-26T11:30:10.719Z,0.73
2022-07-26T11:32:24.418Z,0.93
2022-07-26T11:34:30.884Z,0.63
2022-07-26T11:36:43.667Z,0.60
2022-07-26T11:38:45.322Z,0.60
2022-07-26T11:40:47.737Z,0.70
2022-07-26T11:42:54.178Z,0.70
2022-07-26T11:44:56.935Z,0.60
2022-07-26T11:46:59.168Z,1.15
2022-07-26T11:49:01.504Z,1.05
2022-07-26T11:51:17.703Z,0.70
2022-07-26T11:53:23.301Z,0.88
2022-07-26T11:55:31.362Z,0.80
2022-07-26T11:57:36.097Z,0.70
2022-07-26T11:59:38.351Z,0.70
2022-07-26T12:01:40.228Z,0.60
2022-07-26T12:03:52.294Z,0.98
2022-07-26T12:06:04.823Z,0.63
2022-07-26T12:08:10.038Z,0.50
2022-07-26T12:10:16.466Z,0.55
2022-07-26T12:12:20.851Z,0.60
2022-07-26T12:14:29.460Z,0.80
2022-07-26T12:16:38.056Z,0.63
2022-07-26T12:18:40.842Z,0.80
2022-07-26T12:21:16.190Z,0.63
2022-07-26T12:23:17.877Z,0.90
2022-07-26T12:25:29.516Z,0.45
2022-07-26T12:27:33.196Z,0.50
2022-07-26T12:29:38.769Z,0.60
2022-07-26T12:31:40.675Z,0.75
2022-07-26T12:33:49.550Z,0.68
2022-07-26T12:35:51.605Z,0.50
2022-07-26T12:37:53.869Z,0.75
2022-07-26T12:40:09.662Z,0.68
2022-07-26T12:42:33.269Z,0.70
2022-07-26T12:44:36.391Z,0.60
2022-07-26T12:46:38.187Z,0.60
2022-07-26T12:48:41.822Z,0.73
2022-07-26T12:50:43.653Z,0.60
2022-07-26T12:52:45.826Z,0.40
2022-07-26T12:54:49.495Z,0.70
2022-07-26T12:56:51.280Z,0.80
2022-07-26T12:58:54.219Z,1.13
2022-07-26T13:00:56.124Z,0.70
2022-07-26T13:02:58.133Z,0.60
2022-07-26T13:05:01.356Z,0.75
2022-07-26T13:07:05.659Z,0.77
2022-07-26T13:09:07.363Z,0.80
2022-07-26T13:11:09.138Z,0.60
2022-07-26T13:13:10.872Z,0.70
2022-07-26T13:15:12.560Z,0.70
2022-07-26T13:17:14.295Z,0.80
2022-07-26T13:19:16.071Z,0.50
2022-07-26T13:21:17.848Z,0.70
2022-07-26T13:23:23.142Z,0.63
2022-07-26T13:25:30.818Z,0.60
2022-07-26T13:27:44.332Z,0.68
2022-07-26T13:29:46.636Z,0.57
2022-07-26T13:31:48.687Z,0.80
2022-07-26T13:33:50.367Z,0.90
2022-07-26T13:35:52.015Z,0.60
2022-07-26T13:37:53.703Z,0.70
2022-07-26T13:39:55.612Z,0.75
2022-07-26T13:41:57.387Z,0.60
2022-07-26T13:43:59.505Z,0.60
2022-07-26T13:46:01.952Z,0.55
2022-07-26T13:48:03.875Z,0.40
2022-07-26T13:50:06.603Z,0.55
2022-07-26T13:52:15.188Z,0.43
2022-07-26T13:54:19.210Z,0.70
2022-07-26T13:56:20.837Z,0.50
2022-07-26T13:58:22.940Z,0.82
2022-07-26T14:00:29.252Z,0.50
2022-07-26T14:02:31.956Z,0.50
2022-07-26T14:04:33.673Z,0.60
2022-07-26T14:06:35.846Z,0.63
2022-07-26T14:08:37.489Z,0.60
2022-07-26T14:10:40.502Z,0.70
2022-07-26T14:12:42.165Z,0.60
2022-07-26T14:14:43.824Z,0.57
2022-07-26T14:16:47.935Z,0.65
2022-07-26T14:18:54.938Z,0.60
2022-07-26T14:20:56.570Z,0.60
2022-07-26T14:22:58.288Z,0.70
2022-07-26T14:24:59.943Z,0.50
2022-07-26T14:27:02.881Z,0.60
2022-07-26T14:29:04.749Z,0.40
2022-07-26T14:31:06.438Z,0.60
2022-07-26T14:33:08.227Z,0.50
2022-07-26T14:35:10.634Z,0.73
2022-07-26T14:37:41.639Z,0.68
2022-07-26T14:39:34.108Z,0.50
2022-07-26T14:41:35.820Z,0.57
2022-07-26T14:43:38.487Z,0.60
2022-07-26T14:45:40.167Z,0.45
2022-07-26T14:47:41.956Z,0.80
2022-07-26T14:49:43.719Z,0.80
2022-07-26T14:51:45.615Z,0.60
2022-07-26T14:53:49.696Z,0.57
2022-07-26T14:55:51.836Z,0.70
2022-07-26T14:57:53.486Z,0.70
2022-07-26T14:59:55.250Z,0.82
2022-07-26T15:01:59.472Z,0.80
2022-07-26T15:04:04.389Z,0.60
2022-07-26T15:06:06.034Z,0.70
2022-07-26T15:08:07.764Z,0.80
2022-07-26T15:10:11.466Z,0.73
2022-07-26T15:12:13.157Z,0.70
2022-07-26T15:14:15.061Z,0.80
2022-07-26T15:16:16.764Z,0.68
2022-07-26T15:18:18.557Z,0.85
2022-07-26T15:20:20.859Z,0.68
2022-07-26T15:22:25.286Z,0.68
2022-07-26T15:24:27.645Z,0.80
2022-07-26T15:26:29.431Z,0.77
2022-07-26T15:28:31.137Z,0.68
2022-07-26T15:30:33.737Z,0.60
2022-07-26T15:32:36.003Z,1.13
2022-07-26T15:34:37.667Z,0.57
2022-07-26T15:36:39.438Z,0.95
2022-07-26T15:38:45.167Z,0.65
2022-07-26T15:40:46.871Z,0.80
2022-07-26T15:42:50.617Z,0.70
2022-07-26T15:44:52.366Z,0.65
2022-07-26T15:46:55.135Z,0.80
2022-07-26T15:48:56.886Z,0.55
2022-07-26T15:50:58.798Z,0.70
2022-07-26T15:53:00.508Z,1.10
2022-07-26T15:55:02.457Z,0.80
2022-07-26T15:57:04.221Z,0.95
2022-07-26T15:59:09.187Z,0.82
2022-07-26T16:01:11.179Z,0.70
2022-07-26T16:03:13.117Z,0.57
2022-07-26T16:05:14.758Z,0.52
2022-07-26T16:07:16.888Z,0.63
2022-07-26T16:09:19.613Z,0.57
2022-07-26T16:11:21.562Z,0.60
2022-07-26T16:13:23.271Z,0.68
2022-07-26T16:15:25.238Z,0.50
2022-07-26T16:17:26.918Z,0.73
2022-07-26T16:19:28.771Z,0.60
2022-07-26T16:21:30.460Z,0.95
2022-07-26T16:23:32.102Z,1.10
2022-07-26T16:25:33.725Z,0.52
2022-07-26T16:27:35.460Z,0.77
2022-07-26T16:29:37.104Z,0.60
2022-07-26T16:31:41.570Z,0.60
2022-07-26T16:33:46.400Z,0.52
2022-07-26T16:35:48.414Z,0.40
2022-07-26T16:37:50.351Z,0.73
2022-07-26T16:39:52.109Z,0.70
2022-07-26T16:41:53.831Z,0.70
2022-07-26T16:43:55.972Z,0.73
2022-07-26T16:45:57.585Z,0.45
2022-07-26T16:48:00.086Z,0.80
2022-07-26T16:50:02.249Z,0.68
2022-07-26T16:52:04.190Z,0.60
2022-07-26T16:54:05.918Z,0.60
2022-07-26T16:56:07.582Z,0.82
2022-07-26T16:58:09.258Z,0.60
2022-07-26T17:00:12.240Z,0.43
2022-07-26T17:02:13.994Z,0.60
2022-07-26T17:04:16.818Z,0.68
2022-07-26T17:06:18.574Z,0.60
2022-07-26T17:08:20.380Z,0.73
2022-07-26T17:10:22.148Z,0.45
2022-07-26T17:12:30.101Z,0.68
2022-07-26T17:14:31.807Z,0.70
2022-07-26T17:16:33.755Z,0.60
2022-07-26T17:18:35.499Z,0.60
2022-07-26T17:20:39.005Z,0.60
2022-07-26T17:22:40.707Z,0.60
2022-07-26T17:24:42.461Z,0.70
2022-07-26T17:26:44.123Z,0.60
2022-07-26T17:28:45.948Z,0.70
2022-07-26T17:30:47.645Z,0.82
2022-07-26T17:32:49.695Z,0.60
2022-07-26T17:34:51.400Z,0.93
2022-07-26T17:37:05.748Z,0.70
2022-07-26T17:39:08.997Z,0.50
2022-07-26T17:41:17.589Z,0.57
2022-07-26T17:43:20.223Z,0.52
2022-07-26T17:45:21.942Z,0.50
2022-07-26T17:47:28.891Z,0.57
2022-07-26T17:49:31.529Z,0.77
2022-07-26T17:51:33.295Z,0.60
2022-07-26T17:53:35.182Z,0.60
2022-07-26T17:55:36.854Z,0.68
2022-07-26T17:57:38.696Z,0.52
2022-07-26T17:59:40.347Z,0.80
2022-07-26T18:01:52.552Z,0.70
2022-07-26T18:03:55.942Z,0.70
2022-07-26T18:05:57.685Z,0.60
2022-07-26T18:07:59.854Z,0.77
2022-07-26T18:10:01.533Z,0.65
2022-07-26T18:12:03.427Z,0.60
2022-07-26T18:14:09.891Z,0.60
2022-07-26T18:16:12.958Z,0.65
2022-07-26T18:18:14.662Z,0.60
2022-07-26T18:20:16.333Z,0.75
2022-07-26T18:22:18.097Z,0.70
2022-07-26T18:24:19.833Z,0.70
2022-07-26T18:26:22.462Z,0.65
2022-07-26T18:28:24.774Z,0.90
2022-07-26T18:30:29.794Z,0.60
2022-07-26T18:32:31.568Z,0.75
2022-07-26T18:34:33.239Z,0.63
2022-07-26T18:36:35.187Z,0.57
2022-07-26T18:38:37.389Z,0.65
2022-07-26T18:40:39.118Z,0.60
2022-07-26T18:42:41.265Z,0.70
2022-07-26T18:44:42.955Z,0.70
2022-07-26T18:46:44.694Z,0.50
2022-07-26T18:48:46.465Z,0.70
2022-07-26T18:50:48.467Z,0.70
2022-07-26T18:52:52.480Z,0.82
2022-07-26T18:54:54.203Z,0.80
2022-07-26T18:56:55.918Z,0.60
2022-07-26T18:58:57.717Z,1.10
2022-07-26T19:00:59.375Z,0.60
2022-07-26T19:03:01.135Z,0.80
2022-07-26T19:05:03.035Z,0.70
2022-07-26T19:07:04.720Z,0.88
2022-07-26T19:09:06.729Z,0.70
2022-07-26T19:11:08.386Z,0.80
2022-07-26T19:13:10.587Z,0.63
2022-07-26T19:15:12.566Z,0.95
2022-07-26T19:17:14.268Z,0.63
2022-07-26T19:19:16.347Z,0.70
2022-07-26T19:21:18.370Z,0.77
2022-07-26T19:23:20.120Z,0.77
2022-07-26T19:25:21.810Z,0.70
2022-07-26T19:27:23.744Z,0.70
2022-07-26T19:29:25.499Z,0.80
2022-07-26T19:31:27.222Z,0.70
2022-07-26T19:33:29.151Z,0.60
2022-07-26T19:35:30.822Z,0.80
2022-07-26T19:37:32.715Z,0.82
2022-07-26T19:39:34.394Z,0.80
2022-07-26T19:41:36.108Z,0.50
2022-07-26T19:43:37.803Z,0.60
2022-07-26T19:45:39.626Z,0.77
2022-07-26T19:47:41.547Z,0.80
2022-07-26T19:49:43.235Z,0.80
2022-07-26T19:51:45.006Z,1.55
2022-07-26T19:53:46.712Z,0.70
2022-07-26T19:55:48.422Z,1.05
2022-07-26T19:57:50.300Z,0.80
2022-07-26T19:59:52.083Z,0.70
2022-07-26T20:01:56.572Z,0.90
2022-07-26T20:04:02.247Z,0.90
2022-07-26T20:06:04.122Z,0.60
2022-07-26T20:08:06.128Z,0.80
2022-07-26T20:10:08.520Z,1.10
2022-07-26T20:12:10.638Z,0.70
2022-07-26T20:14:12.222Z,1.02
2022-07-26T20:16:13.973Z,1.00
2022-07-26T20:18:18.340Z,0.90
2022-07-26T20:20:20.337Z,1.17
2022-07-26T20:22:23.561Z,1.50
2022-07-26T20:24:26.303Z,0.90
2022-07-26T20:26:27.948Z,1.20
2022-07-26T20:28:29.657Z,1.20
2022-07-26T20:30:31.448Z,1.10
2022-07-26T20:32:33.184Z,1.00
2022-07-26T20:34:35.080Z,1.27
2022-07-26T20:36:36.893Z,1.30
2022-07-26T20:38:38.504Z,1.00
2022-07-26T20:40:40.347Z,1.20
2022-07-26T20:42:44.372Z,1.40
2022-07-26T20:44:47.493Z,1.17
2022-07-26T20:46:50.446Z,1.00
2022-07-26T20:48:53.331Z,1.25
2022-07-26T20:50:55.006Z,1.20
2022-07-26T20:52:56.751Z,1.10
2022-07-26T20:54:59.072Z,1.20
2022-07-26T20:57:00.733Z,0.93
2022-07-26T20:59:06.699Z,1.38
2022-07-26T21:01:08.383Z,1.10
2022-07-26T21:03:10.299Z,1.55
2022-07-26T21:05:12.913Z,1.20
2022-07-26T21:07:14.636Z,1.23
2022-07-26T21:09:16.426Z,1.20
2022-07-26T21:11:18.794Z,1.25
2022-07-26T21:13:20.486Z,1.33
2022-07-26T21:15:22.092Z,1.50
2022-07-26T21:17:34.450Z,1.20
2022-07-26T21:19:36.788Z,1.30
2022-07-26T21:21:38.876Z,1.10
2022-07-26T21:23:40.609Z,1.17
2022-07-26T21:25:42.239Z,1.30
2022-07-26T21:27:43.992Z,1.33
2022-07-26T21:29:45.882Z,1.15
2022-07-26T21:31:47.794Z,1.00
2022-07-26T21:33:49.488Z,1.45
2022-07-26T21:35:51.214Z,1.20
2022-07-26T21:37:52.975Z,1.05
2022-07-26T21:39:54.622Z,1.48
2022-07-26T21:41:56.344Z,1.35
2022-07-26T21:43:57.992Z,1.10
2022-07-26T21:45:59.777Z,1.23
2022-07-26T21:48:02.048Z,1.80
2022-07-26T21:50:04.302Z,1.00
2022-07-26T21:52:06.126Z,1.27
2022-07-26T21:54:07.885Z,1.25
2022-07-26T21:56:11.318Z,1.20
2022-07-26T21:58:13.216Z,1.10
2022-07-26T22:00:16.560Z,1.33
2022-07-26T22:02:19.946Z,0.90
2022-07-26T22:04:24.418Z,1.35
2022-07-26T22:06:26.102Z,1.33
2022-07-26T22:08:27.947Z,1.20
2022-07-26T22:10:29.618Z,1.23
2022-07-26T22:12:31.579Z,1.02
2022-07-26T22:14:33.296Z,0.88
2022-07-26T22:16:35.374Z,1.33
2022-07-26T22:18:37.089Z,0.98
2022-07-26T22:20:39.015Z,1.23
2022-07-26T22:22:40.718Z,1.20
2022-07-26T22:24:42.356Z,1.05
2022-07-26T22:26:44.112Z,0.90
2022-07-26T22:28:45.693Z,1.10
2022-07-26T22:30:47.471Z,0.98
2022-07-26T22:32:51.201Z,0.95
2022-07-26T22:34:52.862Z,1.33
2022-07-26T22:36:54.531Z,1.40
2022-07-26T22:38:56.138Z,1.05
2022-07-26T22:40:59.097Z,1.65
2022-07-26T22:43:00.804Z,1.20
2022-07-26T22:45:03.307Z,1.30
2022-07-26T22:47:11.680Z,1.50
2022-07-26T22:49:15.023Z,1.15
2022-07-26T22:51:16.921Z,0.95
2022-07-26T22:53:18.636Z,1.10
2022-07-26T22:55:20.879Z,1.20
2022-07-26T22:57:22.699Z,1.25
2022-07-26T22:59:25.441Z,1.40
2022-07-26T23:01:27.249Z,1.20
2022-07-26T23:03:29.008Z,1.15
2022-07-26T23:05:45.759Z,1.20
2022-07-26T23:07:49.726Z,1.17
2022-07-26T23:09:51.512Z,1.27
2022-07-26T23:11:53.180Z,1.30
2022-07-26T23:13:58.647Z,1.17
2022-07-26T23:16:01.808Z,1.00
2022-07-26T23:18:03.761Z,1.13
2022-07-26T23:20:07.193Z,1.15
2022-07-26T23:22:08.891Z,0.90
2022-07-26T23:24:10.529Z,1.13
2022-07-26T23:26:12.158Z,1.13
2022-07-26T23:28:24.833Z,1.30
2022-07-26T23:30:35.497Z,1.20
2022-07-26T23:32:37.251Z,1.05
2022-07-26T23:34:38.967Z,1.27
2022-07-26T23:36:40.799Z,1.10
2022-07-26T23:38:42.439Z,1.25
2022-07-26T23:40:44.054Z,1.27
2022-07-26T23:42:48.906Z,1.20
2022-07-26T23:44:50.545Z,1.05
2022-07-26T23:46:52.291Z,1.20
2022-07-26T23:48:55.140Z,1.02
2022-07-26T23:50:56.887Z,1.10
2022-07-26T23:52:58.570Z,1.00
2022-07-26T23:55:00.218Z,1.20
2022-07-26T23:57:01.946Z,1.10
2022-07-26T23:59:03.721Z,1.20
